Aviation Digital Data Service (ADDS)

Output produced by METARs form (0620 UTC 19 February 2019)
found at http://www.aviationweather.gov/metar/data/
 
METAR text: MGGT 190600Z 00000KT 8000 SKC 17/16 Q1026 A3030 BR
Conditions at: MGGT (GUATEMALA/LA AU , GT) observed 0600 UTC 19 February 2019
Temperature: 17.0°C (63°F)
Dewpoint: 16.0°C (61°F) [RH = 94%]
Pressure (altimeter): 30.30 inches Hg (1026.0 mb)
Winds: calm
Visibility: 5 miles ( 8 km)
Ceiling: at least 12,000 feet AGL
Clouds: clear skies
Weather: BR  (mist)

METAR text: MGGT 190500Z 00000KT 8000 SKC 17/16 Q1027 A3033 BR
Conditions at: MGGT (GUATEMALA/LA AU , GT) observed 0500 UTC 19 February 2019
Temperature: 17.0°C (63°F)
Dewpoint: 16.0°C (61°F) [RH = 94%]
Pressure (altimeter): 30.32 inches Hg (1027.0 mb)
Winds: calm
Visibility: 5 miles ( 8 km)
Ceiling: at least 12,000 feet AGL
Clouds: clear skies
Weather: BR  (mist)

METAR text: MGGT 190400Z 00000KT 7000 SKC 18/16 Q1026 A3030 HZ
Conditions at: MGGT (GUATEMALA/LA AU , GT) observed 0400 UTC 19 February 2019
Temperature: 18.0°C (64°F)
Dewpoint: 16.0°C (61°F) [RH = 88%]
Pressure (altimeter): 30.30 inches Hg (1026.0 mb)
Winds: calm
Visibility: 4 miles ( 7 km)
Ceiling: at least 12,000 feet AGL
Clouds: clear skies
Weather: HZ  (haze)

METAR text: MGGT 190300Z 00000KT 5000 HZ SKC 18/16 Q1026 A3030
Conditions at: MGGT (GUATEMALA/LA AU , GT) observed 0300 UTC 19 February 2019
Temperature: 18.0°C (64°F)
Dewpoint: 16.0°C (61°F) [RH = 88%]
Pressure (altimeter): 30.30 inches Hg (1026.0 mb)
Winds: calm
Visibility: 3 miles ( 5 km)
Ceiling: at least 12,000 feet AGL
Clouds: clear skies
Weather: HZ  (haze)

METAR text: MGGT 190200Z 18008KT 5000 HZ SKC 19/16 Q1025 A3027
Conditions at: MGGT (GUATEMALA/LA AU , GT) observed 0200 UTC 19 February 2019
Temperature: 19.0°C (66°F)
Dewpoint: 16.0°C (61°F) [RH = 83%]
Pressure (altimeter): 30.27 inches Hg (1025.0 mb)
Winds: from the S (180 degrees) at 9 MPH (8 knots; 4.1 m/s)
Visibility: 3 miles ( 5 km)
Ceiling: at least 12,000 feet AGL
Clouds: clear skies
Weather: HZ  (haze)

METAR text: MGGT 190100Z 18008KT 5000 HZ SKC 20/17 Q1024 A3024
Conditions at: MGGT (GUATEMALA/LA AU , GT) observed 0100 UTC 19 February 2019
Temperature: 20.0°C (68°F)
Dewpoint: 17.0°C (63°F) [RH = 83%]
Pressure (altimeter): 30.24 inches Hg (1024.0 mb)
Winds: from the S (180 degrees) at 9 MPH (8 knots; 4.1 m/s)
Visibility: 3 miles ( 5 km)
Ceiling: at least 12,000 feet AGL
Clouds: clear skies
Weather: HZ  (haze)

METAR text: MGGT 190000Z 18010KT 5000 HZ SKC 22/18 Q1024 A3024
Conditions at: MGGT (GUATEMALA/LA AU , GT) observed 0000 UTC 19 February 2019
Temperature: 22.0°C (72°F)
Dewpoint: 18.0°C (64°F) [RH = 78%]
Pressure (altimeter): 30.24 inches Hg (1024.0 mb)
Winds: from the S (180 degrees) at 12 MPH (10 knots; 5.1 m/s)
Visibility: 3 miles ( 5 km)
Ceiling: at least 12,000 feet AGL
Clouds: clear skies
Weather: HZ  (haze)

METAR text: MGGT 182300Z 18010KT 7000 FEW022 24/16 Q1024 A3024 HZ
Conditions at: MGGT (GUATEMALA/LA AU , GT) observed 2300 UTC 18 February 2019
Temperature: 24.0°C (75°F)
Dewpoint: 16.0°C (61°F) [RH = 61%]
Pressure (altimeter): 30.24 inches Hg (1024.0 mb)
Winds: from the S (180 degrees) at 12 MPH (10 knots; 5.1 m/s)
Visibility: 4 miles ( 7 km)
Ceiling: at least 12,000 feet AGL
Clouds: few clouds at 2200 feet AGL
Weather: HZ  (haze)

METAR text: MGGT 182200Z 20012KT 7000 FEW020 25/16 Q1023 A3021 HZ
Conditions at: MGGT (GUATEMALA/LA AU , GT) observed 2200 UTC 18 February 2019
Temperature: 25.0°C (77°F)
Dewpoint: 16.0°C (61°F) [RH = 57%]
Pressure (altimeter): 30.21 inches Hg (1023.0 mb)
Winds: from the SSW (200 degrees) at 14 MPH (12 knots; 6.2 m/s)
Visibility: 4 miles ( 7 km)
Ceiling: at least 12,000 feet AGL
Clouds: few clouds at 2000 feet AGL
Weather: HZ  (haze)

METAR text: MGGT 182100Z 18012KT 8000 FEW022 26/15 Q1023 A3021 HZ
Conditions at: MGGT (GUATEMALA/LA AU , GT) observed 2100 UTC 18 February 2019
Temperature: 26.0°C (79°F)
Dewpoint: 15.0°C (59°F) [RH = 51%]
Pressure (altimeter): 30.21 inches Hg (1023.0 mb)
Winds: from the S (180 degrees) at 14 MPH (12 knots; 6.2 m/s)
Visibility: 5 miles ( 8 km)
Ceiling: at least 12,000 feet AGL
Clouds: few clouds at 2200 feet AGL
Weather: HZ  (haze)

METAR text: MGGT 182000Z 18014KT 8000 FEW020 26/15 Q1014 A3024 FU
Conditions at: MGGT (GUATEMALA/LA AU , GT) observed 2000 UTC 18 February 2019
Temperature: 26.0°C (79°F)
Dewpoint: 15.0°C (59°F) [RH = 51%]
Pressure (altimeter): 29.94 inches Hg (1014.0 mb)
Winds: from the S (180 degrees) at 16 MPH (14 knots; 7.2 m/s)
Visibility: 5 miles ( 8 km)
Ceiling: at least 12,000 feet AGL
Clouds: few clouds at 2000 feet AGL
Weather: FU  (smoke)

METAR text: MGGT 181920Z 18012KT 8000 FEW018 FU
Conditions at: MGGT (GUATEMALA/LA AU , GT) observed 1920 UTC 18 February 2019
Temperature: missing
Dewpoint: missing
Pressure (altimeter): missing
Winds: from the S (180 degrees) at 14 MPH (12 knots; 6.2 m/s)
Visibility: 5 miles ( 8 km)
Ceiling: at least 12,000 feet AGL
Clouds: few clouds at 1800 feet AGL
Weather: FU  (smoke)

METAR text: MGGT 181900Z 18014KT 9999 FEW020 26/13 Q1025 A3027
Conditions at: MGGT (GUATEMALA/LA AU , GT) observed 1900 UTC 18 February 2019
Temperature: 26.0°C (79°F)
Dewpoint: 13.0°C (55°F) [RH = 45%]
Pressure (altimeter): 30.27 inches Hg (1025.0 mb)
Winds: from the S (180 degrees) at 16 MPH (14 knots; 7.2 m/s)
Visibility: 6 or more miles (10+ km)
Ceiling: at least 12,000 feet AGL
Clouds: few clouds at 2000 feet AGL
Weather: no significant weather observed at this time

METAR text: MGGT 181800Z 18014KT 9999 FEW018 25/13 Q1026 A3030
Conditions at: MGGT (GUATEMALA/LA AU , GT) observed 1800 UTC 18 February 2019
Temperature: 25.0°C (77°F)
Dewpoint: 13.0°C (55°F) [RH = 47%]
Pressure (altimeter): 30.30 inches Hg (1026.0 mb)
Winds: from the S (180 degrees) at 16 MPH (14 knots; 7.2 m/s)
Visibility: 6 or more miles (10+ km)
Ceiling: at least 12,000 feet AGL
Clouds: few clouds at 1800 feet AGL
Weather: no significant weather observed at this time

METAR text: MGGT 181700Z 18008KT 9999 FEW018 24/14 Q1027 A3033
Conditions at: MGGT (GUATEMALA/LA AU , GT) observed 1700 UTC 18 February 2019
Temperature: 24.0°C (75°F)
Dewpoint: 14.0°C (57°F) [RH = 54%]
Pressure (altimeter): 30.32 inches Hg (1027.0 mb)
Winds: from the S (180 degrees) at 9 MPH (8 knots; 4.1 m/s)
Visibility: 6 or more miles (10+ km)
Ceiling: at least 12,000 feet AGL
Clouds: few clouds at 1800 feet AGL
Weather: no significant weather observed at this time

METAR text: MGGT 181600Z 18006KT 8000 FEW016 22/15 Q1027 A3033 HZ
Conditions at: MGGT (GUATEMALA/LA AU , GT) observed 1600 UTC 18 February 2019
Temperature: 22.0°C (72°F)
Dewpoint: 15.0°C (59°F) [RH = 65%]
Pressure (altimeter): 30.32 inches Hg (1027.0 mb)
Winds: from the S (180 degrees) at 7 MPH (6 knots; 3.1 m/s)
Visibility: 5 miles ( 8 km)
Ceiling: at least 12,000 feet AGL
Clouds: few clouds at 1600 feet AGL
Weather: HZ  (haze)

METAR text: MGGT 181543Z 18006KT 8000 FEW016 HZ
Conditions at: MGGT (GUATEMALA/LA AU , GT) observed 1543 UTC 18 February 2019
Temperature: missing
Dewpoint: missing
Pressure (altimeter): missing
Winds: from the S (180 degrees) at 7 MPH (6 knots; 3.1 m/s)
Visibility: 5 miles ( 8 km)
Ceiling: at least 12,000 feet AGL
Clouds: few clouds at 1600 feet AGL
Weather: HZ  (haze)

METAR text: MGGT 181500Z 18004KT 5000 HZ FEW014 19/15 Q1027 A3033
Conditions at: MGGT (GUATEMALA/LA AU , GT) observed 1500 UTC 18 February 2019
Temperature: 19.0°C (66°F)
Dewpoint: 15.0°C (59°F) [RH = 78%]
Pressure (altimeter): 30.32 inches Hg (1027.0 mb)
Winds: from the S (180 degrees) at 5 MPH (4 knots; 2.1 m/s)
Visibility: 3 miles ( 5 km)
Ceiling: at least 12,000 feet AGL
Clouds: few clouds at 1400 feet AGL
Weather: HZ  (haze)

METAR text: MGGT 181423Z 18004KT 4000 BR FEW004
Conditions at: MGGT (GUATEMALA/LA AU , GT) observed 1423 UTC 18 February 2019
Temperature: missing
Dewpoint: missing
Pressure (altimeter): missing
Winds: from the S (180 degrees) at 5 MPH (4 knots; 2.1 m/s)
Visibility: 2.49 miles (4.01 km)
Ceiling: at least 12,000 feet AGL
Clouds: few clouds at 400 feet AGL
Weather: BR  (mist)

METAR text: MGGT 181405Z VRB03KT 1200 BR FEW003 BEST APCH SBR STN
Conditions at: MGGT (GUATEMALA/LA AU , GT) observed 1405 UTC 18 February 2019
Temperature: missing
Dewpoint: missing
Pressure (altimeter): missing
Winds: variable direction winds at 3 MPH (3 knots; 1.5 m/s)
Visibility: 0.75 miles (1.21 km)
Ceiling: at least 12,000 feet AGL
Clouds: few clouds at 300 feet AGL
Weather: BR BR SS  (mist, mist, sandstorm)

METAR text: MGGT 181400Z 00000KT 1000 BR OVC002 16/15 Q1026 A3030 APCH CLSD
Conditions at: MGGT (GUATEMALA/LA AU , GT) observed 1400 UTC 18 February 2019
Temperature: 16.0°C (61°F)
Dewpoint: 15.0°C (59°F) [RH = 94%]
Pressure (altimeter): 30.30 inches Hg (1026.0 mb)
Winds: calm
Visibility: 0.62 miles (1.00 km)
Ceiling: 200 feet AGL
Clouds: overcast cloud deck at 200 feet AGL
Weather: BR  (mist)

METAR text: MGGT 181325Z 00000KT 0500 FG OVC001 APCH CLSD
Conditions at: MGGT (GUATEMALA/LA AU , GT) observed 1325 UTC 18 February 2019
Temperature: missing
Dewpoint: missing
Pressure (altimeter): missing
Winds: calm
Visibility: 0.31 miles (0.50 km)
Ceiling: 100 feet AGL
Clouds: overcast cloud deck at 100 feet AGL
Weather: FG  (fog)

METAR text: MGGT 181300Z 00000KT 1000 BR BKN002 16/15 Q1025 A3027 APCH CLSD
Conditions at: MGGT (GUATEMALA/LA AU , GT) observed 1300 UTC 18 February 2019
Temperature: 16.0°C (61°F)
Dewpoint: 15.0°C (59°F) [RH = 94%]
Pressure (altimeter): 30.27 inches Hg (1025.0 mb)
Winds: calm
Visibility: 0.62 miles (1.00 km)
Ceiling: 200 feet AGL
Clouds: broken clouds at 200 feet AGL
Weather: BR  (mist)

METAR text: MGGT 181233Z 00000KT 1000 BR OVC002 APCH CLSD
Conditions at: MGGT (GUATEMALA/LA AU , GT) observed 1233 UTC 18 February 2019
Temperature: missing
Dewpoint: missing
Pressure (altimeter): missing
Winds: calm
Visibility: 0.62 miles (1.00 km)
Ceiling: 200 feet AGL
Clouds: overcast cloud deck at 200 feet AGL
Weather: BR  (mist)

METAR text: MGGT 181210Z 00000KT 1000 BR SCT002 BKN012 APCH CLSD
Conditions at: MGGT (GUATEMALA/LA AU , GT) observed 1210 UTC 18 February 2019
Temperature: missing
Dewpoint: missing
Pressure (altimeter): missing
Winds: calm
Visibility: 0.62 miles (1.00 km)
Ceiling: 1200 feet AGL
Clouds: scattered clouds at 200 feet AGL
broken clouds at 1200 feet AGL
Weather: BR  (mist)

METAR text: MGGT 181200Z 00000KT 6000 FEW004 SCT012 16/15 Q1024 A3024 BR
Conditions at: MGGT (GUATEMALA/LA AU , GT) observed 1200 UTC 18 February 2019
Temperature: 16.0°C (61°F)
Dewpoint: 15.0°C (59°F) [RH = 94%]
Pressure (altimeter): 30.24 inches Hg (1024.0 mb)
Winds: calm
Visibility: 4 miles ( 6 km)
Ceiling: at least 12,000 feet AGL
Clouds: few clouds at 400 feet AGL
scattered clouds at 1200 feet AGL
Weather: BR  (mist)

METAR text: MGGT 181100Z 00000KT 7000 FEW005 16/14 Q1024 A3024 BR
Conditions at: MGGT (GUATEMALA/LA AU , GT) observed 1100 UTC 18 February 2019
Temperature: 16.0°C (61°F)
Dewpoint: 14.0°C (57°F) [RH = 88%]
Pressure (altimeter): 30.24 inches Hg (1024.0 mb)
Winds: calm
Visibility: 4 miles ( 7 km)
Ceiling: at least 12,000 feet AGL
Clouds: few clouds at 500 feet AGL
Weather: BR  (mist)

METAR text: MGGT 181000Z 18004KT 5000 BR FEW004 17/16 Q1024 A3024
Conditions at: MGGT (GUATEMALA/LA AU , GT) observed 1000 UTC 18 February 2019
Temperature: 17.0°C (63°F)
Dewpoint: 16.0°C (61°F) [RH = 94%]
Pressure (altimeter): 30.24 inches Hg (1024.0 mb)
Winds: from the S (180 degrees) at 5 MPH (4 knots; 2.1 m/s)
Visibility: 3 miles ( 5 km)
Ceiling: at least 12,000 feet AGL
Clouds: few clouds at 400 feet AGL
Weather: BR  (mist)

METAR text: MGGT 180900Z 19006KT 5000 BR FEW004 BKN013 17/16 Q1024 A3024
Conditions at: MGGT (GUATEMALA/LA AU , GT) observed 0900 UTC 18 February 2019
Temperature: 17.0°C (63°F)
Dewpoint: 16.0°C (61°F) [RH = 94%]
Pressure (altimeter): 30.24 inches Hg (1024.0 mb)
Winds: from the S (190 degrees) at 7 MPH (6 knots; 3.1 m/s)
Visibility: 3 miles ( 5 km)
Ceiling: 1300 feet AGL
Clouds: few clouds at 400 feet AGL
broken clouds at 1300 feet AGL
Weather: BR  (mist)

METAR text: MGGT 180800Z 18008KT 5000 BR FEW004 BKN014 18/16 Q1024 A3024
Conditions at: MGGT (GUATEMALA/LA AU , GT) observed 0800 UTC 18 February 2019
Temperature: 18.0°C (64°F)
Dewpoint: 16.0°C (61°F) [RH = 88%]
Pressure (altimeter): 30.24 inches Hg (1024.0 mb)
Winds: from the S (180 degrees) at 9 MPH (8 knots; 4.1 m/s)
Visibility: 3 miles ( 5 km)
Ceiling: 1400 feet AGL
Clouds: few clouds at 400 feet AGL
broken clouds at 1400 feet AGL
Weather: BR  (mist)

METAR text: MGGT 180700Z 18008KT 6000 OVC014 18/16 Q1025 A3027 HZ
Conditions at: MGGT (GUATEMALA/LA AU , GT) observed 0700 UTC 18 February 2019
Temperature: 18.0°C (64°F)
Dewpoint: 16.0°C (61°F) [RH = 88%]
Pressure (altimeter): 30.27 inches Hg (1025.0 mb)
Winds: from the S (180 degrees) at 9 MPH (8 knots; 4.1 m/s)
Visibility: 4 miles ( 6 km)
Ceiling: 1400 feet AGL
Clouds: overcast cloud deck at 1400 feet AGL
Weather: HZ  (haze)

METAR text: MGGT 180600Z 18008KT 6000 OVC015 19/16 Q1025 A3027 HZ
Conditions at: MGGT (GUATEMALA/LA AU , GT) observed 0600 UTC 18 February 2019
Temperature: 19.0°C (66°F)
Dewpoint: 16.0°C (61°F) [RH = 83%]
Pressure (altimeter): 30.27 inches Hg (1025.0 mb)
Winds: from the S (180 degrees) at 9 MPH (8 knots; 4.1 m/s)
Visibility: 4 miles ( 6 km)
Ceiling: 1500 feet AGL
Clouds: overcast cloud deck at 1500 feet AGL
Weather: HZ  (haze)

METAR text: MGGT 180500Z 18010KT 6000 BKN015 18/16 Q1026 A3030 HZ
Conditions at: MGGT (GUATEMALA/LA AU , GT) observed 0500 UTC 18 February 2019
Temperature: 18.0°C (64°F)
Dewpoint: 16.0°C (61°F) [RH = 88%]
Pressure (altimeter): 30.30 inches Hg (1026.0 mb)
Winds: from the S (180 degrees) at 12 MPH (10 knots; 5.1 m/s)
Visibility: 4 miles ( 6 km)
Ceiling: 1500 feet AGL
Clouds: broken clouds at 1500 feet AGL
Weather: HZ  (haze)

METAR text: MGGT 180400Z 18010KT 6000 BKN016 19/16 Q1025 A3027 HZ
Conditions at: MGGT (GUATEMALA/LA AU , GT) observed 0400 UTC 18 February 2019
Temperature: 19.0°C (66°F)
Dewpoint: 16.0°C (61°F) [RH = 83%]
Pressure (altimeter): 30.27 inches Hg (1025.0 mb)
Winds: from the S (180 degrees) at 12 MPH (10 knots; 5.1 m/s)
Visibility: 4 miles ( 6 km)
Ceiling: 1600 feet AGL
Clouds: broken clouds at 1600 feet AGL
Weather: HZ  (haze)

METAR text: MGGT 180300Z 18010KT 6000 SCT016 19/16 Q1025 A3027 HZ
Conditions at: MGGT (GUATEMALA/LA AU , GT) observed 0300 UTC 18 February 2019
Temperature: 19.0°C (66°F)
Dewpoint: 16.0°C (61°F) [RH = 83%]
Pressure (altimeter): 30.27 inches Hg (1025.0 mb)
Winds: from the S (180 degrees) at 12 MPH (10 knots; 5.1 m/s)
Visibility: 4 miles ( 6 km)
Ceiling: at least 12,000 feet AGL
Clouds: scattered clouds at 1600 feet AGL
Weather: HZ  (haze)

METAR text: MGGT 180200Z 18010KT 7000 SCT016 19/16 Q1025 A3027 HZ
Conditions at: MGGT (GUATEMALA/LA AU , GT) observed 0200 UTC 18 February 2019
Temperature: 19.0°C (66°F)
Dewpoint: 16.0°C (61°F) [RH = 83%]
Pressure (altimeter): 30.27 inches Hg (1025.0 mb)
Winds: from the S (180 degrees) at 12 MPH (10 knots; 5.1 m/s)
Visibility: 4 miles ( 7 km)
Ceiling: at least 12,000 feet AGL
Clouds: scattered clouds at 1600 feet AGL
Weather: HZ  (haze)

METAR text: MGGT 180100Z 18010KT 7000 FEW017 20/17 Q1024 A3024 HZ
Conditions at: MGGT (GUATEMALA/LA AU , GT) observed 0100 UTC 18 February 2019
Temperature: 20.0°C (68°F)
Dewpoint: 17.0°C (63°F) [RH = 83%]
Pressure (altimeter): 30.24 inches Hg (1024.0 mb)
Winds: from the S (180 degrees) at 12 MPH (10 knots; 5.1 m/s)
Visibility: 4 miles ( 7 km)
Ceiling: at least 12,000 feet AGL
Clouds: few clouds at 1700 feet AGL
Weather: HZ  (haze)

METAR text: MGGT 180000Z 18012KT 7000 FEW018 21/17 Q1023 A3021 HZ
Conditions at: MGGT (GUATEMALA/LA AU , GT) observed 0000 UTC 18 February 2019
Temperature: 21.0°C (70°F)
Dewpoint: 17.0°C (63°F) [RH = 78%]
Pressure (altimeter): 30.21 inches Hg (1023.0 mb)
Winds: from the S (180 degrees) at 14 MPH (12 knots; 6.2 m/s)
Visibility: 4 miles ( 7 km)
Ceiling: at least 12,000 feet AGL
Clouds: few clouds at 1800 feet AGL
Weather: HZ  (haze)

METAR text: MGGT 172300Z 18012KT 7000 FEW022 23/16 Q1023 A3021 HZ
Conditions at: MGGT (GUATEMALA/LA AU , GT) observed 2300 UTC 17 February 2019
Temperature: 23.0°C (73°F)
Dewpoint: 16.0°C (61°F) [RH = 65%]
Pressure (altimeter): 30.21 inches Hg (1023.0 mb)
Winds: from the S (180 degrees) at 14 MPH (12 knots; 6.2 m/s)
Visibility: 4 miles ( 7 km)
Ceiling: at least 12,000 feet AGL
Clouds: few clouds at 2200 feet AGL
Weather: HZ  (haze)

METAR text: MGGT 172200Z 18012KT 8000 FEW024 24/15 Q1022 A3018 HZ
Conditions at: MGGT (GUATEMALA/LA AU , GT) observed 2200 UTC 17 February 2019
Temperature: 24.0°C (75°F)
Dewpoint: 15.0°C (59°F) [RH = 57%]
Pressure (altimeter): 30.18 inches Hg (1022.0 mb)
Winds: from the S (180 degrees) at 14 MPH (12 knots; 6.2 m/s)
Visibility: 5 miles ( 8 km)
Ceiling: at least 12,000 feet AGL
Clouds: few clouds at 2400 feet AGL
Weather: HZ  (haze)

METAR text: MGGT 172100Z 18014KT 8000 FEW022 26/14 Q1023 A3021 HZ
Conditions at: MGGT (GUATEMALA/LA AU , GT) observed 2100 UTC 17 February 2019
Temperature: 26.0°C (79°F)
Dewpoint: 14.0°C (57°F) [RH = 48%]
Pressure (altimeter): 30.21 inches Hg (1023.0 mb)
Winds: from the S (180 degrees) at 16 MPH (14 knots; 7.2 m/s)
Visibility: 5 miles ( 8 km)
Ceiling: at least 12,000 feet AGL
Clouds: few clouds at 2200 feet AGL
Weather: HZ  (haze)

METAR text: MGGT 172000Z 18010KT 8000 FEW022 26/13 Q1024 A3024 HZ
Conditions at: MGGT (GUATEMALA/LA AU , GT) observed 2000 UTC 17 February 2019
Temperature: 26.0°C (79°F)
Dewpoint: 13.0°C (55°F) [RH = 45%]
Pressure (altimeter): 30.24 inches Hg (1024.0 mb)
Winds: from the S (180 degrees) at 12 MPH (10 knots; 5.1 m/s)
Visibility: 5 miles ( 8 km)
Ceiling: at least 12,000 feet AGL
Clouds: few clouds at 2200 feet AGL
Weather: HZ  (haze)

METAR text: MGGT 171900Z 18014KT 9999 FEW020 26/13 Q1024 A3024
Conditions at: MGGT (GUATEMALA/LA AU , GT) observed 1900 UTC 17 February 2019
Temperature: 26.0°C (79°F)
Dewpoint: 13.0°C (55°F) [RH = 45%]
Pressure (altimeter): 30.24 inches Hg (1024.0 mb)
Winds: from the S (180 degrees) at 16 MPH (14 knots; 7.2 m/s)
Visibility: 6 or more miles (10+ km)
Ceiling: at least 12,000 feet AGL
Clouds: few clouds at 2000 feet AGL
Weather: no significant weather observed at this time

Forecast for: MGGT (GUATEMALA/LA AU , GT)
Text: MGGT 190500Z 1906/2006 18006KT 7000 NSC TX28/1920Z TN16/1912Z
Forecast period: 0600 to 1400 UTC 19 February 2019
Forecast type: FROM: standard forecast or significant change
Winds: from the S (180 degrees) at 7 MPH (6 knots; 3.1 m/s)
Visibility: 4 miles (7 km)
Ceiling: unknown
Clouds: missing
Weather: no significant weather forecast for this period
Text: PROB40 1908/1914 1000 BR SCT002 SCT012
Forecast period: 0800 to 1400 UTC 19 February 2019
Forecast type: PROBABLE: 40 percent likelihood of the following during this time
Visibility: 0.62 miles (1.00 km)
Ceiling: at least 12,000 feet AGL
Clouds: scattered clouds at 200 feet AGL
scattered clouds at 1200 feet AGL
Weather: BR  (mist)
Text: BECMG 1914/1916 18010KT FEW018
Forecast period: 1400 UTC 19 February 2019 to 0000 UTC 20 February 2019
Forecast type: BECOMING: Conditions expected to become as follows by 1600 UTC 19 February 2019
Winds: from the S (180 degrees) at 12 MPH (10 knots; 5.1 m/s)
Visibility: 4 miles (7 km)
Ceiling: at least 12,000 feet AGL
Clouds: few clouds at 1800 feet AGL
Weather: no significant weather forecast for this period
Text: TEMPO 1920/2000 SCT020
Forecast period: 2000 UTC 19 February 2019 to 0000 UTC 20 February 2019
Forecast type: TEMPORARY: The following changes expected for less than half the time period
Visibility: missing
Ceiling: at least 12,000 feet AGL
Clouds: scattered clouds at 2000 feet AGL
Weather: no significant weather forecast for this period
Text: BECMG 2000/2002 FEW016
Forecast period: 0000 to 0600 UTC 20 February 2019
Forecast type: BECOMING: Conditions expected to become as follows by 0200 UTC 20 February 2019
Winds: from the S (180 degrees) at 12 MPH (10 knots; 5.1 m/s)
Visibility: 4 miles (7 km)
Ceiling: at least 12,000 feet AGL
Clouds: few clouds at 1600 feet AGL
Weather: no significant weather forecast for this period